createdAt,value
2022-11-24T00:00:18.348Z,192.80
2022-11-24T00:02:45.473Z,147.73
2022-11-24T00:05:12.759Z,158.53
2022-11-24T00:07:39.524Z,156.00
2022-11-24T00:10:09.776Z,176.73
2022-11-24T00:12:36.800Z,162.40
2022-11-24T00:15:06.824Z,163.67
2022-11-24T00:17:34.203Z,206.90
2022-11-24T00:20:00.903Z,202.63
2022-11-24T00:22:27.922Z,162.43
2022-11-24T00:24:54.661Z,164.33
2022-11-24T00:27:21.717Z,131.13
2022-11-24T00:29:48.419Z,156.23
2022-11-24T00:32:15.118Z,176.07
2022-11-24T00:34:42.465Z,182.23
2022-11-24T00:37:09.438Z,202.37
2022-11-24T00:39:36.331Z,176.57
2022-11-24T00:42:03.583Z,170.37
2022-11-24T00:44:30.800Z,159.90
2022-11-24T00:46:58.198Z,187.43
2022-11-24T00:49:25.191Z,176.60
2022-11-24T00:51:52.634Z,184.70
2022-11-24T00:54:19.710Z,151.60
2022-11-24T00:56:46.634Z,179.10
2022-11-24T00:59:13.607Z,176.27
2022-11-24T01:01:41.723Z,148.13
2022-11-24T01:04:08.610Z,176.03
2022-11-24T01:06:36.530Z,152.10
2022-11-24T01:09:04.290Z,157.50
2022-11-24T01:11:53.847Z,157.00
2022-11-24T01:14:22.147Z,113.63
2022-11-24T01:16:49.180Z,156.13
2022-11-24T01:19:22.164Z,148.00
2022-11-24T01:21:49.482Z,147.67
2022-11-24T01:24:17.178Z,169.23
2022-11-24T01:26:44.371Z,174.30
2022-11-24T01:29:11.816Z,170.17
2022-11-24T01:31:38.749Z,160.07
2022-11-24T01:34:05.789Z,149.83
2022-11-24T01:36:32.521Z,177.47
2022-11-24T01:39:02.197Z,116.60
2022-11-24T01:41:29.681Z,165.57
2022-11-24T01:43:58.895Z,91.17
2022-11-24T01:46:30.008Z,109.23
2022-11-24T01:49:05.238Z,139.70
2022-11-24T01:51:35.409Z,100.23
2022-11-24T01:54:06.835Z,131.37
2022-11-24T01:56:36.751Z,163.30
2022-11-24T01:59:07.358Z,134.13
2022-11-24T02:01:35.284Z,124.50
2022-11-24T02:04:07.249Z,176.60
2022-11-24T02:06:38.859Z,169.13
2022-11-24T02:09:11.463Z,174.87
2022-11-24T02:11:45.673Z,156.70
2022-11-24T02:14:15.790Z,152.80
2022-11-24T02:16:47.879Z,137.90
2022-11-24T02:19:21.724Z,159.47
2022-11-24T02:21:48.703Z,207.17
2022-11-24T02:24:23.878Z,154.60
2022-11-24T02:26:51.805Z,206.37
2022-11-24T02:29:19.560Z,120.63
2022-11-24T02:31:50.824Z,166.70
2022-11-24T02:34:17.803Z,141.07
2022-11-24T02:36:44.747Z,176.03
2022-11-24T02:39:12.338Z,95.93
2022-11-24T02:41:41.990Z,98.10
2022-11-24T02:44:10.668Z,145.93
2022-11-24T02:46:37.343Z,155.77
2022-11-24T02:49:04.752Z,151.20
2022-11-24T02:51:33.641Z,57.57
2022-11-24T02:54:00.604Z,113.57
2022-11-24T02:56:28.037Z,102.90
2022-11-24T02:58:55.022Z,156.40
2022-11-24T03:01:22.535Z,186.37
2022-11-24T03:03:49.232Z,167.20
2022-11-24T03:06:16.139Z,94.63
2022-11-24T03:08:43.439Z,178.87
2022-11-24T03:11:10.065Z,150.13
2022-11-24T03:13:36.685Z,174.87
2022-11-24T03:16:04.263Z,144.27
2022-11-24T03:18:31.561Z,110.20
2022-11-24T03:20:59.795Z,194.53
2022-11-24T03:23:26.543Z,138.97
2022-11-24T03:25:53.979Z,158.57
2022-11-24T03:28:20.678Z,230.03
2022-11-24T03:30:48.339Z,153.10
2022-11-24T03:33:15.511Z,164.87
2022-11-24T03:35:43.132Z,158.17
2022-11-24T03:38:10.083Z,158.53
2022-11-24T03:40:37.012Z,92.17
2022-11-24T03:43:04.005Z,147.20
2022-11-24T03:45:45.428Z,231.23
2022-11-24T03:48:13.214Z,124.03
2022-11-24T03:50:40.163Z,136.67
2022-11-24T03:53:07.481Z,128.60
2022-11-24T03:55:34.523Z,153.43
2022-11-24T03:58:01.474Z,144.77
2022-11-24T04:00:28.173Z,125.90
2022-11-24T04:02:55.154Z,136.73
2022-11-24T04:05:21.827Z,121.80
2022-11-24T04:07:48.548Z,179.50
2022-11-24T04:10:16.095Z,152.97
2022-11-24T04:12:44.977Z,133.77
2022-11-24T04:15:12.005Z,139.47
2022-11-24T04:17:38.971Z,157.70
2022-11-24T04:20:06.618Z,176.27
2022-11-24T04:22:33.565Z,145.27
2022-11-24T04:25:00.520Z,128.33
2022-11-24T04:27:27.947Z,128.13
2022-11-24T04:29:55.035Z,141.80
2022-11-24T04:32:21.733Z,124.73
2022-11-24T04:34:48.413Z,129.10
2022-11-24T04:37:15.363Z,97.20
2022-11-24T04:39:42.474Z,162.93
2022-11-24T04:42:09.411Z,67.70
2022-11-24T04:44:36.886Z,105.60
2022-11-24T04:47:04.314Z,137.30
2022-11-24T04:49:31.224Z,107.47
2022-11-24T04:51:58.138Z,150.23
2022-11-24T04:54:25.161Z,151.30
2022-11-24T04:56:52.409Z,184.90
2022-11-24T04:59:19.260Z,144.50
2022-11-24T05:01:46.714Z,148.03
2022-11-24T05:04:15.113Z,209.47
2022-11-24T05:06:42.087Z,163.87
2022-11-24T05:09:13.331Z,124.30
2022-11-24T05:11:40.169Z,146.17
2022-11-24T05:14:07.352Z,138.63
2022-11-24T05:16:34.040Z,166.93
2022-11-24T05:19:02.923Z,171.70
2022-11-24T05:21:29.952Z,199.87
2022-11-24T05:23:58.079Z,163.70
2022-11-24T05:26:24.736Z,135.80
2022-11-24T05:28:51.708Z,115.83
2022-11-24T05:31:18.527Z,179.80
2022-11-24T05:33:45.855Z,157.90
2022-11-24T05:36:34.276Z,143.40
2022-11-24T05:39:01.026Z,117.17
2022-11-24T05:51:54.978Z,109.23
2022-11-24T05:54:21.994Z,156.77
2022-11-24T05:56:48.648Z,153.30
2022-11-24T05:59:15.286Z,133.47
2022-11-24T06:01:42.231Z,111.23
2022-11-24T06:04:09.258Z,114.00
2022-11-24T06:06:36.308Z,120.30
2022-11-24T06:09:04.205Z,125.17
2022-11-24T06:11:31.212Z,96.03
2022-11-24T06:13:58.284Z,122.63
2022-11-24T06:16:25.049Z,159.73
2022-11-24T06:18:51.721Z,125.40
2022-11-24T06:21:18.346Z,78.27
2022-11-24T06:23:47.799Z,105.33
2022-11-24T06:26:17.111Z,50.50
2022-11-24T06:28:44.263Z,95.33
2022-11-24T06:31:12.301Z,106.97
2022-11-24T06:33:39.569Z,139.40
2022-11-24T06:36:08.205Z,143.37
2022-11-24T06:38:38.819Z,83.43
2022-11-24T06:41:07.233Z,122.47
2022-11-24T06:43:35.956Z,84.60
2022-11-24T06:46:03.573Z,103.00
2022-11-24T06:48:31.206Z,130.03
2022-11-24T06:50:59.750Z,127.80
2022-11-24T06:53:27.260Z,106.23
2022-11-24T06:55:54.270Z,94.43
2022-11-24T06:58:21.719Z,149.50
2022-11-24T07:00:51.407Z,126.13
2022-11-24T07:03:18.922Z,113.40
2022-11-24T07:05:46.145Z,130.93
2022-11-24T07:08:17.637Z,124.90
2022-11-24T07:10:49.146Z,127.70
2022-11-24T07:13:17.276Z,102.37
2022-11-24T07:15:44.418Z,98.80
2022-11-24T07:18:13.062Z,128.83
2022-11-24T07:20:40.233Z,119.50
2022-11-24T07:23:07.358Z,101.13
2022-11-24T07:25:34.282Z,43.40
2022-11-24T07:28:01.363Z,58.80
2022-11-24T07:30:28.290Z,98.17
2022-11-24T07:32:59.711Z,90.87
2022-11-24T07:35:29.407Z,115.43
2022-11-24T07:37:57.084Z,110.13
2022-11-24T07:40:24.163Z,121.70
2022-11-24T07:42:51.148Z,102.47
2022-11-24T07:45:22.224Z,108.60
2022-11-24T07:47:50.036Z,109.80
2022-11-24T07:50:17.442Z,90.47
2022-11-24T07:52:44.868Z,120.00
2022-11-24T07:55:11.513Z,109.37
2022-11-24T07:57:39.093Z,93.87
2022-11-24T08:00:10.663Z,95.27
2022-11-24T08:02:37.359Z,95.43
2022-11-24T08:05:04.584Z,96.40
2022-11-24T08:07:31.236Z,100.70
2022-11-24T08:09:58.749Z,96.13
2022-11-24T08:12:25.634Z,95.10
2022-11-24T08:14:52.564Z,65.23
2022-11-24T08:17:19.475Z,80.67
2022-11-24T08:19:46.414Z,96.17
2022-11-24T08:22:13.335Z,74.53
2022-11-24T08:24:45.896Z,73.33
2022-11-24T08:27:13.892Z,64.33
2022-11-24T08:29:41.005Z,70.87
2022-11-24T08:32:08.124Z,89.47
2022-11-24T08:34:35.819Z,73.70
2022-11-24T08:37:03.628Z,83.33
2022-11-24T08:39:30.406Z,91.07
2022-11-24T08:41:57.228Z,77.43
2022-11-24T08:44:24.685Z,84.30
2022-11-24T08:46:53.254Z,72.13
2022-11-24T08:49:21.070Z,90.00
2022-11-24T08:51:49.317Z,70.80
2022-11-24T08:54:17.944Z,98.87
2022-11-24T08:56:45.242Z,91.23
2022-11-24T08:59:13.125Z,93.67
2022-11-24T09:01:41.102Z,86.07
2022-11-24T09:04:07.867Z,82.93
2022-11-24T09:06:35.026Z,96.30
2022-11-24T09:09:02.003Z,74.57
2022-11-24T09:11:28.801Z,79.10
2022-11-24T09:13:55.621Z,94.30
2022-11-24T09:16:25.136Z,78.10
2022-11-24T09:18:56.755Z,96.87
2022-11-24T09:21:23.634Z,86.83
2022-11-24T09:23:51.798Z,89.17
2022-11-24T09:26:20.741Z,85.27
2022-11-24T09:28:48.198Z,83.13
2022-11-24T09:31:17.153Z,77.10
2022-11-24T09:33:44.588Z,70.53
2022-11-24T09:36:12.440Z,67.57
2022-11-24T09:38:39.619Z,67.10
2022-11-24T09:41:38.809Z,62.43
2022-11-24T09:44:11.477Z,63.83
2022-11-24T09:46:48.886Z,75.57
2022-11-24T09:49:23.816Z,67.80
2022-11-24T09:51:54.756Z,80.20
2022-11-24T09:54:25.746Z,58.37
2022-11-24T09:56:52.702Z,70.47
2022-11-24T09:59:21.779Z,63.33
2022-11-24T10:01:50.407Z,67.00
2022-11-24T10:04:21.152Z,65.10
2022-11-24T10:07:01.169Z,67.90
2022-11-24T10:09:56.318Z,63.30
2022-11-24T10:12:42.728Z,58.60
2022-11-24T10:15:37.621Z,58.90
2022-11-24T10:18:30.033Z,52.73
2022-11-24T10:21:07.330Z,57.87
2022-11-24T10:23:49.446Z,52.30
2022-11-24T10:26:32.653Z,50.90
2022-11-24T10:28:59.899Z,46.20
2022-11-24T10:31:32.667Z,52.67
2022-11-24T10:34:03.988Z,46.67
2022-11-24T10:36:42.193Z,48.67
2022-11-24T10:39:17.913Z,49.27
2022-11-24T10:41:50.634Z,48.73
2022-11-24T10:44:17.554Z,49.70
2022-11-24T10:46:44.339Z,47.27
2022-11-24T10:49:17.697Z,42.20
2022-11-24T10:51:56.602Z,37.93
2022-11-24T10:54:24.352Z,38.83
2022-11-24T10:56:52.254Z,45.23
2022-11-24T10:59:27.449Z,43.23
2022-11-24T11:01:56.916Z,40.13
2022-11-24T11:04:26.848Z,45.43
2022-11-24T11:07:15.902Z,40.70
2022-11-24T11:09:43.593Z,40.43
2022-11-24T11:12:41.947Z,43.33
2022-11-24T11:15:22.692Z,39.40
2022-11-24T11:17:51.694Z,34.70
2022-11-24T11:20:20.791Z,36.00
2022-11-24T11:22:48.869Z,36.30
2022-11-24T11:25:21.888Z,31.47
2022-11-24T11:27:49.156Z,31.90
2022-11-24T11:36:10.590Z,37.33
2022-11-24T11:38:39.077Z,39.00
2022-11-24T11:41:10.545Z,36.43
2022-11-24T11:43:40.650Z,33.73
2022-11-24T11:46:12.912Z,35.77
2022-11-24T11:48:44.361Z,35.37
2022-11-24T11:51:30.147Z,35.93
2022-11-24T11:54:04.982Z,36.70
2022-11-24T11:56:43.512Z,39.10
2022-11-24T11:59:36.985Z,33.50
2022-11-24T12:02:31.052Z,35.57
2022-11-24T12:05:00.588Z,36.57
2022-11-24T12:07:41.632Z,42.23
2022-11-24T12:10:21.832Z,36.70
2022-11-24T12:13:28.278Z,37.27
2022-11-24T12:15:57.614Z,36.13
2022-11-24T12:18:56.684Z,38.27
2022-11-24T12:21:26.904Z,35.40
2022-11-24T12:24:08.273Z,34.07
2022-11-24T12:26:42.616Z,34.87
2022-11-24T12:29:48.469Z,34.90
2022-11-24T12:32:28.421Z,41.37
2022-11-24T12:34:59.369Z,36.63
2022-11-24T12:37:42.753Z,37.43
2022-11-24T12:40:15.461Z,34.70
2022-11-24T12:42:51.548Z,36.67
2022-11-24T12:45:28.047Z,32.27
2022-11-24T12:48:15.397Z,34.97
2022-11-24T12:50:45.427Z,38.93
2022-11-24T12:53:15.178Z,39.50
2022-11-24T12:55:43.005Z,37.30
2022-11-24T12:58:16.881Z,36.00
2022-11-24T13:00:55.289Z,38.40
2022-11-24T13:03:33.238Z,35.70
2022-11-24T13:06:05.713Z,38.93
2022-11-24T13:08:32.718Z,38.33
2022-11-24T13:11:33.369Z,35.87
2022-11-24T13:14:02.424Z,36.07
2022-11-24T13:16:38.511Z,38.07
2022-11-24T13:19:15.564Z,33.43
2022-11-24T13:22:16.975Z,37.83
2022-11-24T13:24:44.586Z,39.17
2022-11-24T13:27:39.373Z,35.83
2022-11-24T13:30:51.311Z,37.00
2022-11-24T13:33:32.518Z,39.13
2022-11-24T13:36:30.680Z,39.17
2022-11-24T13:38:58.475Z,37.30
2022-11-24T13:42:10.328Z,38.50
2022-11-24T13:44:58.326Z,40.87
2022-11-24T13:47:34.462Z,40.07
2022-11-24T13:50:03.721Z,39.50
2022-11-24T13:52:43.809Z,39.43
2022-11-24T13:55:31.365Z,38.50
2022-11-24T13:58:02.249Z,42.67
2022-11-24T14:00:31.336Z,42.77
2022-11-24T14:03:01.241Z,39.97
2022-11-24T14:05:35.484Z,40.47
2022-11-24T14:08:03.033Z,36.30
2022-11-24T14:10:33.852Z,39.73
2022-11-24T14:13:17.499Z,41.03
2022-11-24T14:15:44.505Z,37.73
2022-11-24T14:18:17.439Z,46.00
2022-11-24T14:20:44.873Z,41.00
2022-11-24T14:23:12.451Z,39.00
2022-11-24T14:25:39.284Z,45.47
2022-11-24T14:28:15.150Z,37.80
2022-11-24T14:30:42.478Z,39.37
2022-11-24T14:33:11.970Z,40.27
2022-11-24T14:35:43.722Z,43.50
2022-11-24T14:38:12.844Z,39.57
2022-11-24T14:40:41.459Z,39.77
2022-11-24T14:43:18.531Z,39.70
2022-11-24T14:45:49.862Z,37.37
2022-11-24T14:48:26.569Z,42.43
2022-11-24T14:51:03.921Z,40.90
2022-11-24T14:53:31.712Z,41.17
2022-11-24T14:56:10.008Z,40.30
2022-11-24T14:58:41.964Z,47.03
2022-11-24T15:01:21.644Z,43.53
2022-11-24T15:04:54.234Z,46.30
2022-11-24T15:07:16.361Z,44.23
2022-11-24T15:09:50.836Z,40.97
2022-11-24T15:12:27.925Z,41.30
2022-11-24T15:14:57.819Z,44.27
2022-11-24T15:17:27.856Z,43.93
2022-11-24T15:19:57.581Z,43.93
2022-11-24T15:22:37.786Z,43.10
2022-11-24T15:25:27.286Z,47.70
2022-11-24T15:27:54.351Z,44.37
2022-11-24T15:30:21.002Z,44.47
2022-11-24T15:32:52.282Z,38.93
2022-11-24T15:35:20.870Z,47.17
2022-11-24T15:37:47.539Z,48.07
2022-11-24T15:40:15.068Z,48.63
2022-11-24T15:42:51.844Z,53.37
2022-11-24T15:45:19.790Z,53.23
2022-11-24T15:47:46.713Z,54.03
2022-11-24T15:50:13.917Z,50.40
2022-11-24T15:52:41.601Z,45.53
2022-11-24T15:55:16.952Z,51.33
2022-11-24T15:57:44.895Z,50.23
2022-11-24T16:00:16.238Z,55.57
2022-11-24T16:02:43.448Z,54.20
2022-11-24T16:05:11.640Z,56.67
2022-11-24T16:07:38.571Z,54.83
2022-11-24T16:10:08.189Z,54.83
2022-11-24T16:12:34.848Z,52.60
2022-11-24T16:15:02.456Z,60.67
2022-11-24T16:17:29.222Z,44.93
2022-11-24T16:20:00.831Z,49.20
2022-11-24T16:22:27.776Z,51.57
2022-11-24T16:24:55.686Z,52.33
2022-11-24T16:27:22.908Z,55.13
2022-11-24T16:29:49.774Z,60.43
2022-11-24T16:32:17.834Z,57.00
2022-11-24T16:34:45.923Z,52.20
2022-11-24T16:37:13.246Z,51.33
2022-11-24T16:39:39.971Z,51.77
2022-11-24T16:42:08.988Z,55.00
2022-11-24T16:44:36.990Z,51.07
2022-11-24T16:47:04.368Z,50.13
2022-11-24T16:49:32.255Z,47.47
2022-11-24T16:51:59.612Z,47.37
2022-11-24T16:54:26.700Z,47.17
2022-11-24T16:56:54.932Z,47.43
2022-11-24T16:59:21.784Z,48.40
2022-11-24T17:01:50.189Z,45.87
2022-11-24T17:04:17.460Z,46.33
2022-11-24T17:06:44.889Z,46.07
2022-11-24T17:09:11.788Z,46.50
2022-11-24T17:11:38.876Z,50.33
2022-11-24T17:14:05.615Z,46.33
2022-11-24T17:16:32.477Z,44.60
2022-11-24T17:18:59.274Z,45.37
2022-11-24T17:21:27.166Z,49.43
2022-11-24T17:23:55.357Z,50.03
2022-11-24T17:26:22.344Z,47.67
2022-11-24T17:28:49.198Z,49.80
2022-11-24T17:31:19.880Z,61.90
2022-11-24T17:33:47.955Z,52.10
2022-11-24T17:36:14.740Z,51.03
2022-11-24T17:38:41.631Z,46.53
2022-11-24T17:41:08.994Z,49.50
2022-11-24T17:43:35.961Z,47.00
2022-11-24T17:46:05.171Z,47.80
2022-11-24T17:48:32.654Z,51.53
2022-11-24T17:51:00.882Z,53.43
2022-11-24T17:53:27.729Z,50.83
2022-11-24T17:55:54.413Z,52.30
2022-11-24T17:58:21.840Z,51.57
2022-11-24T18:00:51.306Z,51.20
2022-11-24T18:03:18.339Z,54.03
2022-11-24T18:05:45.304Z,52.00
2022-11-24T18:08:12.047Z,52.40
2022-11-24T18:10:39.073Z,53.67
2022-11-24T18:13:05.712Z,56.40
2022-11-24T18:15:34.012Z,54.03
2022-11-24T18:18:00.796Z,58.40
2022-11-24T18:20:29.358Z,50.27
2022-11-24T18:23:05.506Z,59.00
2022-11-24T18:25:36.407Z,53.53
2022-11-24T18:28:04.502Z,56.97
2022-11-24T18:30:31.483Z,57.13
2022-11-24T18:32:59.227Z,54.57
2022-11-24T18:35:26.183Z,57.33
2022-11-24T18:37:53.621Z,58.33
2022-11-24T18:40:20.275Z,54.37
2022-11-24T18:42:48.227Z,49.30
2022-11-24T18:45:14.999Z,52.87
2022-11-24T18:47:41.793Z,52.03
2022-11-24T18:50:10.122Z,69.90
2022-11-24T18:52:37.113Z,56.47
2022-11-24T18:55:04.497Z,51.67
2022-11-24T18:57:31.246Z,57.23
2022-11-24T18:59:59.345Z,59.60
2022-11-24T19:02:45.472Z,57.10
2022-11-24T19:05:12.933Z,52.20
2022-11-24T19:07:40.541Z,54.17
2022-11-24T19:10:11.142Z,62.27
2022-11-24T19:12:37.979Z,56.30
2022-11-24T19:15:06.152Z,61.80
2022-11-24T19:17:32.878Z,59.07
2022-11-24T19:19:59.762Z,59.03
2022-11-24T19:22:27.726Z,53.07
2022-11-24T19:24:54.535Z,59.70
2022-11-24T19:27:26.915Z,55.03
2022-11-24T19:29:55.308Z,57.90
2022-11-24T19:32:22.398Z,61.40
2022-11-24T19:34:49.408Z,60.77
2022-11-24T19:37:19.505Z,65.67
2022-11-24T19:39:47.100Z,64.47
2022-11-24T19:42:14.300Z,62.87
2022-11-24T19:44:41.339Z,66.37
2022-11-24T19:47:08.176Z,59.30
2022-11-24T19:49:37.620Z,68.67
2022-11-24T19:52:06.293Z,62.93
2022-11-24T19:54:35.136Z,68.63
2022-11-24T19:57:03.670Z,77.60
2022-11-24T19:59:30.380Z,70.77
2022-11-24T20:01:57.335Z,66.70
2022-11-24T20:04:24.352Z,74.07
2022-11-24T20:06:51.614Z,61.23
2022-11-24T20:09:18.563Z,62.03
2022-11-24T20:11:45.721Z,75.07
2022-11-24T20:14:14.946Z,73.67
2022-11-24T20:16:41.755Z,79.03
2022-11-24T20:19:12.224Z,77.20
2022-11-24T20:21:40.830Z,81.37
2022-11-24T20:24:10.388Z,130.33
2022-11-24T20:26:38.938Z,117.53
2022-11-24T20:29:06.303Z,87.37
2022-11-24T20:31:37.657Z,74.87
2022-11-24T20:34:06.650Z,83.53
2022-11-24T20:36:35.509Z,170.33
2022-11-24T20:39:05.034Z,177.67
2022-11-24T20:41:36.837Z,168.23
2022-11-24T20:44:07.466Z,185.97
2022-11-24T20:46:37.504Z,172.73
2022-11-24T20:49:04.767Z,181.03
2022-11-24T20:51:33.935Z,188.87
2022-11-24T20:54:04.360Z,140.80
2022-11-24T20:56:34.378Z,147.63
2022-11-24T20:59:02.792Z,125.63
2022-11-24T21:01:34.392Z,119.67
2022-11-24T21:04:03.218Z,344.47
2022-11-24T21:06:30.916Z,141.87
2022-11-24T21:09:03.412Z,170.23
2022-11-24T21:11:31.515Z,153.77
2022-11-24T21:13:59.618Z,127.13
2022-11-24T21:16:28.604Z,93.67
2022-11-24T21:18:58.234Z,88.13
2022-11-24T21:21:32.708Z,98.20
2022-11-24T21:24:00.325Z,174.80
2022-11-24T21:26:27.605Z,167.87
2022-11-24T21:28:54.768Z,171.30
2022-11-24T21:31:22.328Z,124.03
2022-11-24T21:33:50.834Z,219.70
2022-11-24T21:36:21.768Z,98.53
2022-11-24T21:38:53.849Z,77.53
2022-11-24T21:41:21.774Z,92.07
2022-11-24T21:43:50.070Z,94.90
2022-11-24T21:46:21.532Z,169.13
2022-11-24T21:48:48.937Z,119.00
2022-11-24T21:51:17.313Z,130.90
2022-11-24T21:53:47.972Z,126.40
2022-11-24T21:56:19.743Z,101.47
2022-11-24T21:58:49.405Z,179.70
2022-11-24T22:01:17.979Z,187.10
2022-11-24T22:03:46.480Z,164.47
2022-11-24T22:06:14.113Z,116.73
2022-11-24T22:08:43.764Z,142.03
2022-11-24T22:11:12.869Z,110.90
2022-11-24T22:13:42.276Z,149.30
2022-11-24T22:16:11.313Z,112.13
2022-11-24T22:18:39.755Z,130.87
2022-11-24T22:21:07.878Z,125.57
2022-11-24T22:23:35.441Z,103.53
2022-11-24T22:26:03.669Z,83.47
2022-11-24T22:28:31.752Z,87.67
2022-11-24T22:31:02.465Z,121.83
2022-11-24T22:33:29.513Z,123.37
2022-11-24T22:35:56.888Z,89.67
2022-11-24T22:38:23.618Z,85.60
2022-11-24T22:40:50.376Z,90.87
2022-11-24T22:43:22.713Z,89.90
2022-11-24T22:45:50.266Z,118.87
2022-11-24T22:48:17.728Z,113.27
2022-11-24T22:50:44.531Z,116.47
2022-11-24T22:53:11.306Z,128.73
2022-11-24T22:55:38.210Z,107.27
2022-11-24T22:58:04.856Z,117.10
2022-11-24T23:00:31.914Z,120.27
2022-11-24T23:02:59.182Z,102.10
2022-11-24T23:05:28.430Z,111.07
2022-11-24T23:07:55.574Z,108.80
2022-11-24T23:10:22.503Z,112.53
2022-11-24T23:12:49.728Z,111.10
2022-11-24T23:15:16.868Z,135.63
2022-11-24T23:17:43.727Z,146.43
2022-11-24T23:20:11.985Z,121.10
2022-11-24T23:22:39.424Z,99.87
2022-11-24T23:25:06.826Z,137.03
2022-11-24T23:27:33.634Z,118.57
2022-11-24T23:30:00.599Z,117.43
2022-11-24T23:32:27.276Z,135.70
2022-11-24T23:34:54.322Z,105.97
2022-11-24T23:37:34.308Z,120.53
2022-11-24T23:40:12.287Z,103.17
2022-11-24T23:42:39.793Z,118.00
2022-11-24T23:45:08.180Z,137.17
2022-11-24T23:47:35.172Z,105.27
2022-11-24T23:50:01.956Z,116.67
2022-11-24T23:52:32.403Z,92.23
2022-11-24T23:54:59.348Z,94.13
2022-11-24T23:57:27.128Z,104.20
2022-11-24T23:59:54.921Z,119.93
